SWR65 KMIA-LSZH
Flight info
| Callsign | SWR65 |
|---|---|
| Flight time | N/A |
| Altitude | 35000 |
| Route | FOLZZ3 SNAGY/M083F350 M203 JNFOX DCT MUNEY M202 LOMPI/N0483F350 DCT SUPRY/M083F360 NATY ELSOX/M082F370 DCT GAPLI/N0475F370 DCT LIZAD DCT JSY DCT ARSUK DCT RESMI DCT TEPRI DCT POGZI DCT GELTA DCT MANAG DCT PEVIT DCT BLM |
| Aircraft | B77W/H-SDE1E2E3FGHIJ2J3J4J5M1RWXY/LB1D1 |
Departure
| Time | N/A |
|---|---|
| Airport | Miami International Airport (KMIA) |
Arrival
| Time | 2026-05-04 12:55 |
|---|---|
| Airport | Zürich Airport (LSZH) |
| Time | Latitude | Longitude | Altitude | Speed | Heading |
|---|---|---|---|---|---|
| 2026-05-04 12:48 | 47.52543 | 8.56158 | 4008 ft | 226 kts | 8° |
| 2026-05-04 12:48 | 47.54077 | 8.55867 | 4001 ft | 224 kts | 335° |
| 2026-05-04 12:48 | 47.55249 | 8.54391 | 3988 ft | 225 kts | 301° |
| 2026-05-04 12:49 | 47.56003 | 8.52394 | 4005 ft | 218 kts | 311° |
| 2026-05-04 12:49 | 47.57193 | 8.51169 | 3982 ft | 204 kts | 343° |
| 2026-05-04 12:49 | 47.58591 | 8.50575 | 4019 ft | 211 kts | 345° |
| 2026-05-04 12:49 | 47.59980 | 8.49998 | 3999 ft | 203 kts | 345° |
| 2026-05-04 12:50 | 47.61318 | 8.49440 | 3987 ft | 198 kts | 345° |
| 2026-05-04 12:50 | 47.62640 | 8.48874 | 3989 ft | 196 kts | 339° |
| 2026-05-04 12:50 | 47.63704 | 8.47676 | 4023 ft | 197 kts | 301° |
| 2026-05-04 12:50 | 47.64054 | 8.45726 | 4003 ft | 201 kts | 264° |
| 2026-05-04 12:51 | 47.63698 | 8.43732 | 4008 ft | 203 kts | 251° |
| 2026-05-04 12:51 | 47.63208 | 8.41754 | 3976 ft | 204 kts | 242° |
| 2026-05-04 12:51 | 47.62450 | 8.39980 | 3998 ft | 205 kts | 235° |
| 2026-05-04 12:51 | 47.61513 | 8.38462 | 3977 ft | 202 kts | 210° |
| 2026-05-04 12:52 | 47.60193 | 8.38004 | 3985 ft | 197 kts | 171° |
| 2026-05-04 12:52 | 47.58977 | 8.38856 | 3989 ft | 193 kts | 138° |
| 2026-05-04 12:52 | 47.57988 | 8.40215 | 3991 ft | 197 kts | 136° |
| 2026-05-04 12:52 | 47.56966 | 8.41606 | 3728 ft | 199 kts | 136° |
| 2026-05-04 12:53 | 47.55967 | 8.42980 | 3476 ft | 195 kts | 136° |
| 2026-05-04 12:53 | 47.54981 | 8.44332 | 3223 ft | 191 kts | 136° |
| 2026-05-04 12:53 | 47.54020 | 8.45649 | 2967 ft | 185 kts | 136° |
| 2026-05-04 12:53 | 47.53097 | 8.46915 | 2759 ft | 176 kts | 136° |
| 2026-05-04 12:54 | 47.52217 | 8.48121 | 2515 ft | 168 kts | 136° |
| 2026-05-04 12:54 | 47.51386 | 8.49262 | 2299 ft | 163 kts | 136° |
| 2026-05-04 12:54 | 47.50541 | 8.50418 | 2102 ft | 168 kts | 136° |
| 2026-05-04 12:54 | 47.49688 | 8.51588 | 1856 ft | 166 kts | 136° |
| 2026-05-04 12:55 | 47.48850 | 8.52730 | 1630 ft | 163 kts | 136° |
| 2026-05-04 12:55 | 47.48022 | 8.53866 | 1448 ft | 163 kts | 135° |
| 2026-05-04 12:55 | 47.47205 | 8.54961 | 1405 ft | 149 kts | 130° |
| 2026-05-04 12:55 | 47.46637 | 8.55755 | 1406 ft | 40 kts | 137° |
| 2026-05-04 12:56 | 47.46506 | 8.55903 | 1404 ft | 22 kts | 154° |
| 2026-05-04 12:56 | 47.46326 | 8.55968 | 1407 ft | 28 kts | 178° |
| 2026-05-04 12:56 | 47.46233 | 8.55830 | 1403 ft | 21 kts | 272° |
| 2026-05-04 12:56 | 47.46187 | 8.55684 | 1410 ft | 16 kts | 191° |
| 2026-05-04 12:57 | 47.46168 | 8.55682 | 1408 ft | 3 kts | 183° |
| 2026-05-04 12:57 | 47.46166 | 8.55682 | 1408 ft | 0 kts | 183° |